Time;durP1;ratioP1;P1;durP2;ratioP2;P2;SDS_P1;SDS_P2;PMS_P1;PMS_P2;Temp;Humidity;BMP_temperature;BMP_pressure;BME280_temperature;BME280_humidity;BME280_pressure;Samples;Min_cycle;Max_cycle;Signal;HPM_P1;HPM_P2
2021/08/22 00:00:39;;;;;;;5.10;4.43;;;20.80;76.70;;;;;;4982198;28;20053;-74
2021/08/22 00:03:05;;;;;;;5.82;4.53;;;20.80;76.70;;;;;;4985035;28;20030;-77
2021/08/22 00:05:31;;;;;;;4.38;3.85;;;20.80;76.80;;;;;;4985004;28;20046;-75
2021/08/22 00:07:56;;;;;;;4.70;4.18;;;20.80;76.80;;;;;;4987389;28;20034;-76
2021/08/22 00:10:22;;;;;;;4.22;3.83;;;20.80;76.80;;;;;;4985136;28;20018;-76
2021/08/22 00:12:48;;;;;;;4.07;3.67;;;20.80;76.80;;;;;;4982793;28;20556;-76
2021/08/22 00:15:14;;;;;;;3.85;3.45;;;20.80;76.80;;;;;;4986492;28;20050;-77
2021/08/22 00:17:40;;;;;;;4.40;4.00;;;20.80;76.80;;;;;;4980441;28;20066;-77
2021/08/22 00:20:07;;;;;;;4.07;3.60;;;20.80;76.90;;;;;;4983989;28;20026;-77
2021/08/22 00:22:33;;;;;;;4.07;3.65;;;20.80;76.90;;;;;;4988482;28;20041;-77
2021/08/22 00:24:58;;;;;;;5.07;4.20;;;20.80;76.90;;;;;;4985028;28;20490;-78
2021/08/22 00:27:24;;;;;;;5.22;4.18;;;20.80;77.00;;;;;;4984871;28;20113;-77
2021/08/22 00:29:49;;;;;;;4.80;4.30;;;20.80;77.00;;;;;;4987334;28;20025;-76
2021/08/22 00:32:15;;;;;;;4.80;4.30;;;20.70;77.10;;;;;;4987566;28;20137;-76
2021/08/22 00:34:41;;;;;;;4.43;4.00;;;20.70;77.20;;;;;;4985948;28;20097;-75
2021/08/22 00:37:07;;;;;;;4.70;4.03;;;20.70;77.20;;;;;;4984256;28;20563;-77
2021/08/22 00:39:33;;;;;;;4.65;4.15;;;20.70;77.20;;;;;;4984846;28;20022;-76
2021/08/22 00:42:04;;;;;;;4.72;4.22;;;20.70;77.20;;;;;;4986385;28;20409;-76
2021/08/22 00:44:30;;;;;;;4.25;3.85;;;20.70;77.20;;;;;;4984969;28;20073;-76
2021/08/22 00:46:56;;;;;;;6.47;5.10;;;20.70;77.10;;;;;;4986007;28;20363;-77
2021/08/22 00:49:26;;;;;;;4.85;4.35;;;20.70;77.30;;;;;;4984478;28;20049;-75
2021/08/22 00:51:52;;;;;;;4.70;3.70;;;20.60;77.30;;;;;;4986656;28;20085;-75
2021/08/22 00:54:18;;;;;;;4.50;4.05;;;20.60;78.10;;;;;;4985925;28;20022;-76
2021/08/22 00:56:43;;;;;;;4.70;4.15;;;20.60;77.50;;;;;;4987972;28;20362;-75
2021/08/22 00:59:28;;;;;;;5.25;4.43;;;20.60;77.40;;;;;;4986203;28;20022;-75
2021/08/22 01:01:57;;;;;;;4.78;4.38;;;20.60;77.50;;;;;;4985101;28;20049;-76
2021/08/22 01:04:30;;;;;;;5.13;4.45;;;20.50;77.40;;;;;;4983974;28;20034;-77
2021/08/22 01:07:08;;;;;;;5.32;4.22;;;20.60;78.20;;;;;;4986400;28;20374;-75
2021/08/22 01:09:38;;;;;;;4.40;4.00;;;20.60;77.50;;;;;;4981895;28;20039;-75
2021/08/22 01:12:29;;;;;;;4.53;3.90;;;20.60;77.60;;;;;;4981895;28;20532;-76
2021/08/22 01:15:09;;;;;;;4.20;3.80;;;20.60;77.60;;;;;;4979940;28;20043;-76
2021/08/22 01:17:40;;;;;;;5.10;4.50;;;20.60;77.60;;;;;;4987872;28;20121;-75
2021/08/22 01:20:09;;;;;;;7.65;6.70;;;20.60;77.50;;;;;;4994520;28;20133;-76
2021/08/22 01:22:38;;;;;;;5.88;5.30;;;20.60;77.80;;;;;;4984165;28;20486;-76
2021/08/22 01:25:07;;;;;;;7.43;6.63;;;20.50;78.00;;;;;;4982287;28;20030;-75
2021/08/22 01:27:35;;;;;;;6.95;6.25;;;20.40;78.20;;;;;;4991025;28;20493;-75
2021/08/22 01:30:04;;;;;;;7.85;6.38;;;20.30;78.50;;;;;;4987454;28;20066;-76
2021/08/22 01:32:38;;;;;;;5.75;5.13;;;20.30;78.70;;;;;;4985202;28;20109;-75
2021/08/22 01:35:06;;;;;;;6.13;5.53;;;20.30;78.90;;;;;;4992707;28;20035;-76
2021/08/22 01:37:36;;;;;;;5.53;4.93;;;20.30;79.00;;;;;;4981730;28;20026;-77
2021/08/22 01:40:03;;;;;;;7.63;6.60;;;20.30;79.00;;;;;;4987158;28;20034;-77
2021/08/22 01:42:30;;;;;;;6.22;5.47;;;20.30;79.00;;;;;;4993978;28;20038;-75
2021/08/22 01:44:58;;;;;;;6.13;4.80;;;20.30;79.10;;;;;;4993365;28;20149;-75
2021/08/22 01:47:24;;;;;;;5.13;4.28;;;20.30;79.00;;;;;;4975189;28;20023;-75
2021/08/22 01:49:50;;;;;;;5.78;5.05;;;20.30;79.00;;;;;;4988025;28;20034;-75
2021/08/22 01:52:16;;;;;;;6.28;5.53;;;20.30;79.00;;;;;;4993742;28;20038;-76
2021/08/22 01:54:42;;;;;;;5.30;4.80;;;20.30;79.00;;;;;;4989030;28;20125;-76
2021/08/22 01:57:09;;;;;;;6.10;5.32;;;20.30;79.10;;;;;;4989995;28;20023;-77
2021/08/22 01:59:35;;;;;;;5.45;4.85;;;20.30;79.10;;;;;;4986797;28;20382;-76
2021/08/22 02:02:01;;;;;;;6.53;5.38;;;20.30;79.10;;;;;;4989017;28;20022;-76
2021/08/22 02:04:41;;;;;;;5.35;4.65;;;20.30;79.20;;;;;;4994411;28;20034;-77
2021/08/22 02:07:14;;;;;;;3.78;3.22;;;20.20;79.40;;;;;;4985800;28;20442;-76
2021/08/22 02:09:56;;;;;;;3.33;2.92;;;20.20;79.40;;;;;;4992581;28;20026;-75
2021/08/22 02:12:22;;;;;;;5.78;3.63;;;20.10;79.50;;;;;;4988050;28;20037;-75
2021/08/22 02:15:11;;;;;;;3.22;2.88;;;20.10;80.30;;;;;;4992121;28;20037;-76
2021/08/22 02:17:42;;;;;;;4.90;3.03;;;20.10;79.60;;;;;;4985030;28;20043;-76
2021/08/22 02:20:08;;;;;;;4.07;3.50;;;20.10;79.70;;;;;;4981185;28;20110;-76
2021/08/22 02:22:35;;;;;;;5.70;4.53;;;20.10;79.60;;;;;;4993987;28;20141;-76
2021/08/22 02:25:01;;;;;;;3.95;3.53;;;20.10;79.70;;;;;;4981526;28;20034;-76
2021/08/22 02:27:30;;;;;;;4.75;4.00;;;20.10;79.60;;;;;;4983111;28;20026;-76
2021/08/22 02:29:56;;;;;;;5.93;5.15;;;20.10;79.80;;;;;;4985914;28;20030;-76
2021/08/22 02:32:23;;;;;;;5.30;4.53;;;20.10;79.90;;;;;;4993249;28;20033;-75
2021/08/22 02:34:50;;;;;;;6.35;5.60;;;20.00;79.90;;;;;;4992139;28;20033;-76
2021/08/22 02:37:16;;;;;;;9.07;8.18;;;20.00;80.00;;;;;;4990727;28;20022;-76
2021/08/22 02:39:41;;;;;;;7.22;6.50;;;20.00;80.90;;;;;;4986621;28;20029;-76
2021/08/22 02:42:07;;;;;;;7.50;6.65;;;19.90;81.00;;;;;;4986789;28;20047;-76
2021/08/22 02:44:33;;;;;;;9.07;7.82;;;19.80;81.10;;;;;;4988376;28;20034;-76
2021/08/22 02:46:59;;;;;;;7.80;7.00;;;19.70;81.30;;;;;;4991069;28;20054;-78
2021/08/22 02:49:25;;;;;;;6.90;5.90;;;19.80;81.30;;;;;;4993358;28;20018;-77
2021/08/22 02:51:50;;;;;;;6.70;6.00;;;19.70;81.10;;;;;;4993156;28;20042;-75
2021/08/22 02:54:16;;;;;;;8.57;7.00;;;19.80;81.30;;;;;;4990316;28;20069;-75
2021/08/22 02:56:41;;;;;;;5.72;5.10;;;19.70;81.20;;;;;;4979979;28;20026;-75
2021/08/22 02:59:07;;;;;;;7.43;6.47;;;19.70;81.20;;;;;;4982495;28;20023;-75
2021/08/22 03:01:33;;;;;;;8.50;7.60;;;19.70;81.20;;;;;;4993054;28;20030;-74
2021/08/22 03:03:59;;;;;;;9.63;8.32;;;19.70;81.20;;;;;;4992157;28;20042;-75
2021/08/22 03:06:24;;;;;;;10.45;8.88;;;19.70;81.60;;;;;;4988302;28;20685;-74
2021/08/22 03:08:50;;;;;;;6.88;6.15;;;19.60;81.70;;;;;;4983492;28;20039;-76
2021/08/22 03:11:19;;;;;;;8.60;6.95;;;19.60;81.70;;;;;;4980691;28;20553;-75
2021/08/22 03:13:46;;;;;;;7.68;6.35;;;19.50;81.60;;;;;;4989370;28;20079;-75
2021/08/22 03:16:11;;;;;;;8.57;7.32;;;19.60;81.60;;;;;;4977308;28;20019;-76
2021/08/22 03:18:37;;;;;;;10.13;7.97;;;19.50;81.70;;;;;;4990844;28;20492;-75
2021/08/22 03:21:03;;;;;;;7.95;6.57;;;19.50;82.40;;;;;;4982771;28;20027;-75
2021/08/22 03:23:28;;;;;;;7.80;6.22;;;19.50;81.80;;;;;;4986515;28;20058;-76
2021/08/22 03:25:54;;;;;;;8.80;7.25;;;19.50;81.80;;;;;;4975446;28;20027;-75
2021/08/22 03:28:20;;;;;;;7.93;6.90;;;19.50;81.90;;;;;;4988844;28;20115;-75
2021/08/22 03:30:46;;;;;;;10.57;8.77;;;19.40;82.20;;;;;;4982885;28;20023;-74
2021/08/22 03:33:12;;;;;;;8.02;7.00;;;19.40;82.30;;;;;;4979933;28;20110;-76
2021/08/22 03:35:37;;;;;;;5.90;5.30;;;19.40;82.40;;;;;;4991489;28;20049;-76
2021/08/22 03:38:03;;;;;;;9.10;7.93;;;19.40;82.30;;;;;;4983063;28;20113;-76
2021/08/22 03:40:28;;;;;;;7.57;6.78;;;19.40;82.20;;;;;;4981388;28;20105;-75
2021/08/22 03:42:54;;;;;;;8.88;7.95;;;19.40;82.20;;;;;;4990192;28;20058;-75
2021/08/22 03:45:19;;;;;;;8.30;6.95;;;19.40;82.30;;;;;;4992104;28;20034;-76
2021/08/22 03:47:45;;;;;;;6.43;5.70;;;19.40;82.30;;;;;;4990699;28;20114;-76
2021/08/22 03:50:10;;;;;;;10.18;8.48;;;19.40;82.20;;;;;;4984773;28;20041;-77
2021/08/22 03:52:36;;;;;;;8.23;6.93;;;19.40;82.20;;;;;;4991711;28;20034;-76
2021/08/22 03:55:02;;;;;;;9.07;7.53;;;19.40;82.20;;;;;;4992504;28;20050;-75
2021/08/22 03:57:28;;;;;;;6.90;5.68;;;19.40;82.10;;;;;;4991069;28;20019;-77
2021/08/22 03:59:53;;;;;;;12.32;10.15;;;19.40;82.10;;;;;;4990911;28;20088;-76
2021/08/22 04:02:21;;;;;;;12.25;8.93;;;19.40;82.30;;;;;;4983994;28;20022;-75
2021/08/22 04:04:47;;;;;;;9.40;8.05;;;19.30;82.30;;;;;;4988908;28;20757;-75
2021/08/22 04:07:13;;;;;;;10.88;8.65;;;19.30;82.50;;;;;;4984174;28;20117;-77
2021/08/22 04:09:39;;;;;;;12.85;10.23;;;19.20;82.50;;;;;;4991926;28;20116;-76
2021/08/22 04:12:05;;;;;;;10.35;8.75;;;19.20;82.80;;;;;;4986166;28;20027;-76
2021/08/22 04:14:30;;;;;;;8.30;6.80;;;19.10;82.70;;;;;;4984990;28;20080;-77
2021/08/22 04:16:56;;;;;;;10.45;8.55;;;19.20;82.80;;;;;;4990432;28;20030;-78
2021/08/22 04:19:21;;;;;;;11.23;8.50;;;19.20;82.80;;;;;;4989190;28;20034;-77
2021/08/22 04:21:47;;;;;;;11.63;8.90;;;19.10;82.80;;;;;;4977318;28;20391;-77
2021/08/22 04:24:12;;;;;;;9.52;8.05;;;19.10;82.90;;;;;;4991166;28;20477;-77
2021/08/22 04:26:39;;;;;;;12.57;9.80;;;19.10;82.90;;;;;;4991283;28;20026;-76
2021/08/22 04:29:05;;;;;;;8.75;7.18;;;19.10;83.20;;;;;;4991427;28;20105;-75
2021/08/22 04:31:31;;;;;;;14.73;11.73;;;19.10;83.20;;;;;;4991146;28;20161;-75
2021/08/22 04:33:56;;;;;;;11.93;9.63;;;19.10;83.50;;;;;;4989822;28;20031;-76
2021/08/22 04:36:22;;;;;;;9.27;7.50;;;19.10;83.60;;;;;;4981986;28;20026;-76
2021/08/22 04:38:47;;;;;;;13.73;11.65;;;19.00;83.50;;;;;;4978802;28;20393;-76
2021/08/22 04:41:21;;;;;;;13.27;10.13;;;19.00;83.70;;;;;;4984393;28;20018;-76
2021/08/22 04:43:47;;;;;;;11.45;9.48;;;19.00;83.70;;;;;;4988271;28;20113;-77
2021/08/22 04:46:13;;;;;;;9.25;7.05;;;19.00;83.70;;;;;;4991154;28;20022;-76
2021/08/22 04:48:39;;;;;;;13.63;10.13;;;19.00;83.70;;;;;;4978598;28;20034;-75
2021/08/22 04:51:05;;;;;;;11.57;9.25;;;19.00;83.80;;;;;;4983649;28;20025;-74
2021/08/22 04:53:32;;;;;;;12.00;9.13;;;19.00;83.70;;;;;;4979722;28;20076;-75
2021/08/22 04:55:57;;;;;;;12.80;10.35;;;19.00;83.60;;;;;;4980465;28;20027;-76
2021/08/22 04:58:23;;;;;;;9.38;7.75;;;19.00;83.70;;;;;;4972472;28;20034;-76
2021/08/22 05:00:48;;;;;;;14.50;10.52;;;19.00;83.70;;;;;;4985925;28;20109;-76
2021/08/22 05:03:14;;;;;;;10.35;8.40;;;19.00;83.80;;;;;;4984075;28;20030;-76
2021/08/22 05:05:39;;;;;;;15.73;10.52;;;19.00;83.80;;;;;;4989176;28;20026;-76
2021/08/22 05:08:05;;;;;;;13.52;10.07;;;19.00;84.00;;;;;;4989438;28;20047;-75
2021/08/22 05:10:30;;;;;;;12.30;9.60;;;19.00;84.00;;;;;;4988292;28;20023;-76
2021/08/22 05:12:56;;;;;;;13.02;9.77;;;19.00;84.00;;;;;;4989279;28;20397;-76
2021/08/22 05:15:21;;;;;;;13.02;9.60;;;19.00;84.00;;;;;;4986339;28;20041;-76
2021/08/22 05:17:47;;;;;;;14.63;11.23;;;19.00;84.00;;;;;;4986620;28;20046;-75
2021/08/22 05:20:12;;;;;;;15.00;10.68;;;19.00;84.00;;;;;;4988230;28;20030;-76
2021/08/22 05:22:38;;;;;;;16.38;12.07;;;19.00;83.90;;;;;;4985087;28;20067;-75
2021/08/22 05:25:04;;;;;;;16.30;11.50;;;19.00;83.90;;;;;;4984433;28;20027;-75
2021/08/22 05:27:30;;;;;;;15.73;11.63;;;19.00;83.80;;;;;;4986061;28;20045;-74
2021/08/22 05:29:55;;;;;;;16.58;12.25;;;19.10;83.80;;;;;;4989065;28;20030;-74
2021/08/22 05:32:21;;;;;;;16.65;11.95;;;19.10;83.70;;;;;;4989059;28;20492;-76
2021/08/22 05:34:46;;;;;;;16.42;11.65;;;19.10;83.70;;;;;;4987506;28;20434;-76
2021/08/22 05:37:12;;;;;;;14.70;11.38;;;19.10;83.90;;;;;;4984603;28;20027;-75
2021/08/22 05:39:37;;;;;;;9.80;7.43;;;19.10;83.90;;;;;;4980569;28;20023;-75
2021/08/22 05:42:03;;;;;;;11.07;9.35;;;19.10;83.70;;;;;;4987175;28;20421;-75
2021/08/22 05:44:30;;;;;;;11.95;8.52;;;19.20;83.70;;;;;;4985468;28;20045;-76
2021/08/22 05:46:55;;;;;;;18.40;13.80;;;19.20;83.60;;;;;;4980706;28;20095;-76
2021/08/22 05:49:21;;;;;;;13.18;10.30;;;19.20;83.60;;;;;;4975742;28;20440;-77
2021/08/22 05:51:47;;;;;;;12.73;9.80;;;19.20;83.60;;;;;;4989403;28;20057;-77
2021/08/22 05:54:12;;;;;;;12.10;9.77;;;19.30;83.40;;;;;;4980886;28;20019;-76
2021/08/22 05:56:38;;;;;;;11.82;8.70;;;19.30;83.40;;;;;;4977162;28;20034;-77
2021/08/22 05:59:04;;;;;;;13.02;9.88;;;19.40;83.30;;;;;;4985402;28;20030;-77
2021/08/22 06:01:29;;;;;;;11.93;8.88;;;19.40;83.20;;;;;;4979417;28;20089;-77
2021/08/22 06:03:55;;;;;;;15.20;11.45;;;19.50;83.10;;;;;;4984561;28;20065;-76
2021/08/22 06:06:20;;;;;;;13.07;9.88;;;19.50;83.20;;;;;;4993649;28;22018;-77
2021/08/22 06:08:46;;;;;;;16.35;12.88;;;19.50;83.20;;;;;;4989801;28;20570;-77
2021/08/22 06:11:11;;;;;;;19.88;14.70;;;19.40;83.30;;;;;;4993123;28;20025;-77
2021/08/22 06:13:37;;;;;;;16.85;13.13;;;19.50;83.50;;;;;;4991471;28;20026;-77
2021/08/22 06:16:03;;;;;;;15.48;10.93;;;19.50;83.40;;;;;;4986046;28;20397;-77
2021/08/22 06:18:28;;;;;;;17.08;12.82;;;19.50;83.40;;;;;;4985098;28;20034;-77
2021/08/22 06:20:54;;;;;;;15.82;12.00;;;19.50;83.50;;;;;;4987998;28;20026;-77
2021/08/22 06:23:20;;;;;;;13.65;10.43;;;19.50;83.60;;;;;;4992399;28;20105;-77
2021/08/22 06:25:45;;;;;;;13.30;10.18;;;19.50;83.60;;;;;;4993809;28;20050;-77
2021/08/22 06:28:13;;;;;;;18.35;14.40;;;19.50;83.60;;;;;;4994602;28;20396;-77
2021/08/22 06:30:38;;;;;;;15.80;11.95;;;19.50;83.60;;;;;;4983265;28;20018;-77
2021/08/22 06:33:04;;;;;;;13.45;10.23;;;19.50;83.60;;;;;;4988457;28;20038;-77
2021/08/22 06:35:29;;;;;;;17.52;13.25;;;19.50;83.50;;;;;;4990093;28;20018;-78
2021/08/22 06:37:55;;;;;;;14.43;10.80;;;19.50;83.40;;;;;;4987542;28;20053;-77
2021/08/22 06:40:21;;;;;;;13.73;10.02;;;19.50;83.40;;;;;;4992878;28;20034;-78
2021/08/22 06:42:46;;;;;;;15.50;11.38;;;19.60;83.40;;;;;;4993064;28;20042;-77
2021/08/22 06:45:12;;;;;;;15.40;12.07;;;19.60;83.40;;;;;;4991774;28;20441;-76
2021/08/22 06:47:37;;;;;;;16.83;12.52;;;19.60;83.40;;;;;;4985495;28;20378;-77
2021/08/22 06:50:04;;;;;;;19.38;14.68;;;19.60;83.40;;;;;;4987296;28;20026;-77
2021/08/22 06:52:29;;;;;;;12.20;9.00;;;19.60;83.40;;;;;;4985665;28;20030;-77
2021/08/22 06:54:55;;;;;;;11.60;8.63;;;19.60;83.30;;;;;;4986712;28;20034;-77
2021/08/22 06:57:20;;;;;;;14.85;10.50;;;19.70;83.20;;;;;;4987524;28;20389;-77
2021/08/22 06:59:46;;;;;;;13.55;10.85;;;19.70;83.20;;;;;;4989673;28;20019;-77
2021/08/22 07:02:11;;;;;;;16.35;12.85;;;19.70;83.20;;;;;;4986180;28;20485;-77
2021/08/22 07:04:37;;;;;;;19.52;13.80;;;19.70;83.30;;;;;;4992591;28;20038;-78
2021/08/22 07:07:03;;;;;;;14.10;10.50;;;19.70;83.50;;;;;;4991080;28;20025;-77
2021/08/22 07:09:29;;;;;;;12.25;10.27;;;19.70;83.30;;;;;;4989710;28;20389;-78
2021/08/22 07:11:54;;;;;;;11.07;8.38;;;19.70;83.20;;;;;;4990675;28;20026;-77
2021/08/22 07:14:20;;;;;;;13.98;11.00;;;19.70;83.00;;;;;;4991188;28;20041;-77
2021/08/22 07:16:45;;;;;;;13.38;10.38;;;19.80;83.00;;;;;;4989283;28;20046;-77
2021/08/22 07:19:11;;;;;;;11.02;9.40;;;19.70;82.90;;;;;;4990114;28;20037;-77
2021/08/22 07:21:36;;;;;;;16.42;12.43;;;19.70;83.00;;;;;;4981844;28;20026;-77
2021/08/22 07:24:02;;;;;;;14.63;11.00;;;19.70;83.00;;;;;;4986254;28;20096;-77
2021/08/22 07:26:28;;;;;;;17.23;13.95;;;19.60;83.00;;;;;;4992957;28;20026;-77
2021/08/22 07:28:53;;;;;;;13.77;11.10;;;19.60;83.00;;;;;;4990169;28;20050;-76
2021/08/22 07:31:20;;;;;;;17.23;13.82;;;19.50;83.10;;;;;;4989085;28;20106;-76
2021/08/22 07:33:46;;;;;;;16.45;12.13;;;19.50;83.10;;;;;;4990884;28;20367;-78
2021/08/22 07:36:12;;;;;;;25.90;18.75;;;19.50;83.10;;;;;;4986546;28;20089;-77
2021/08/22 07:38:38;;;;;;;20.35;17.05;;;19.50;83.70;;;;;;4981420;28;20026;-79
2021/08/22 07:41:03;;;;;;;14.57;11.45;;;19.40;83.20;;;;;;4981613;28;20034;-80
2021/08/22 07:43:29;;;;;;;18.05;12.63;;;19.40;83.20;;;;;;4985414;28;20039;-81
2021/08/22 07:45:55;;;;;;;14.98;10.98;;;19.50;83.20;;;;;;4987621;28;20492;-84
2021/08/22 07:48:22;;;;;;;20.00;14.27;;;19.50;83.20;;;;;;4989330;28;20038;-87
2021/08/22 07:50:47;;;;;;;20.70;15.88;;;19.50;83.20;;;;;;4992589;28;20031;-84
2021/08/22 07:53:16;;;;;;;17.05;13.43;;;19.50;83.80;;;;;;4990998;28;20037;-80
2021/08/22 07:55:42;;;;;;;15.20;12.15;;;19.40;83.20;;;;;;4992341;28;20046;-82
2021/08/22 07:58:08;;;;;;;15.02;10.63;;;19.40;83.10;;;;;;4984204;28;20173;-85
2021/08/22 08:00:33;;;;;;;13.38;10.07;;;19.40;83.10;;;;;;4982168;28;20478;-86
2021/08/22 08:02:59;;;;;;;14.27;11.13;;;19.50;83.00;;;;;;4988011;28;20553;-85
2021/08/22 08:05:24;;;;;;;16.65;12.65;;;19.50;82.80;;;;;;4988673;28;20031;-85
2021/08/22 08:07:50;;;;;;;12.15;10.25;;;19.60;82.80;;;;;;4991463;28;20037;-83
2021/08/22 08:10:17;;;;;;;11.32;8.40;;;19.60;82.70;;;;;;4989945;28;20026;-83
2021/08/22 08:12:43;;;;;;;11.98;9.75;;;19.70;82.70;;;;;;4990224;28;20397;-87
2021/08/22 08:15:09;;;;;;;14.35;11.43;;;19.70;82.60;;;;;;4987231;28;20034;-85
2021/08/22 08:17:34;;;;;;;11.38;10.13;;;19.90;82.50;;;;;;4991913;28;20038;-86
2021/08/22 08:20:00;;;;;;;12.45;10.45;;;20.00;82.20;;;;;;4991804;28;20022;-84
2021/08/22 08:22:25;;;;;;;13.05;10.23;;;20.00;82.00;;;;;;4991418;28;20539;-86
2021/08/22 08:24:51;;;;;;;13.93;10.25;;;20.10;81.80;;;;;;4989233;28;20035;-83
2021/08/22 08:27:17;;;;;;;12.10;9.80;;;20.20;81.50;;;;;;4989400;28;20069;-83
2021/08/22 08:29:42;;;;;;;9.30;8.30;;;20.20;81.40;;;;;;4984662;28;20034;-83
2021/08/22 08:32:08;;;;;;;10.68;9.05;;;20.30;81.30;;;;;;4990978;28;20030;-84
2021/08/22 08:34:33;;;;;;;14.25;7.97;;;20.30;81.00;;;;;;4991038;28;20019;-84
2021/08/22 08:36:59;;;;;;;11.55;9.85;;;20.40;80.90;;;;;;4991007;28;20026;-84
2021/08/22 08:39:24;;;;;;;9.25;7.90;;;20.30;81.50;;;;;;4986688;28;20065;-85
2021/08/22 08:41:50;;;;;;;10.73;9.55;;;20.30;80.90;;;;;;4991596;28;20068;-85
2021/08/22 08:44:15;;;;;;;12.65;10.95;;;20.30;80.80;;;;;;4983959;28;20550;-87
2021/08/22 08:46:49;;;;;;;11.40;9.25;;;20.30;80.50;;;;;;4990094;28;20022;-88
2021/08/22 08:49:37;;;;;;;14.65;11.45;;;20.40;80.50;;;;;;4992335;28;20109;-88
2021/08/22 08:52:43;;;;;;;11.75;9.95;;;20.50;80.20;;;;;;4991359;28;20026;-88
2021/08/22 08:55:22;;;;;;;9.75;7.57;;;20.60;79.70;;;;;;4990621;28;20093;-85
2021/08/22 08:57:48;;;;;;;12.25;10.20;;;20.80;79.50;;;;;;4984013;28;20040;-86
2021/08/22 09:00:22;;;;;;;10.85;9.48;;;20.90;79.10;;;;;;4979647;28;20041;-87
2021/08/22 09:02:48;;;;;;;10.52;8.90;;;21.00;78.80;;;;;;4991879;28;20413;-86
2021/08/22 09:05:52;;;;;;;12.65;10.70;;;21.10;78.20;;;;;;4984262;28;20022;-84
2021/08/22 09:08:48;;;;;;;12.88;10.52;;;21.20;78.00;;;;;;4986945;28;20697;-87
2021/08/22 09:11:44;;;;;;;11.90;9.90;;;21.20;77.90;;;;;;4987929;28;20489;-86
2021/08/22 09:14:47;;;;;;;8.63;6.80;;;21.30;77.80;;;;;;4985335;28;20031;-86
2021/08/22 09:17:50;;;;;;;10.10;8.38;;;21.40;77.50;;;;;;4986844;28;20041;-84
2021/08/22 09:20:31;;;;;;;11.85;10.05;;;21.60;77.20;;;;;;4987753;28;20492;-83
2021/08/22 09:23:18;;;;;;;15.43;13.40;;;21.70;76.70;;;;;;4988886;28;20474;-85
2021/08/22 09:26:21;;;;;;;10.82;9.63;;;21.80;76.10;;;;;;4990612;28;20110;-84
2021/08/22 09:29:23;;;;;;;11.43;10.13;;;21.90;75.90;;;;;;4989726;28;20462;-85
2021/08/22 09:32:26;;;;;;;10.68;8.52;;;21.90;75.50;;;;;;4989989;28;20062;-88
2021/08/22 09:35:30;;;;;;;10.98;9.60;;;21.80;75.70;;;;;;4984189;28;20045;-86
2021/08/22 09:38:23;;;;;;;10.45;8.38;;;21.70;75.80;;;;;;5009211;28;20505;-83
2021/08/22 09:41:22;;;;;;;10.13;8.88;;;21.60;76.00;;;;;;4984055;28;20165;-84
2021/08/22 09:43:57;;;;;;;6.85;5.63;;;21.50;76.10;;;;;;4984034;28;20078;-83
2021/08/22 09:46:52;;;;;;;7.88;7.05;;;21.50;76.20;;;;;;4987880;28;20502;-85
2021/08/22 09:49:56;;;;;;;8.93;7.32;;;21.50;76.10;;;;;;4983516;28;20037;-82
2021/08/22 09:52:59;;;;;;;5.32;4.80;;;21.60;75.90;;;;;;4985071;28;20018;-83
2021/08/22 09:55:49;;;;;;;8.55;7.65;;;21.70;75.60;;;;;;4987360;28;20120;-83
2021/08/22 09:58:53;;;;;;;9.88;8.45;;;21.70;75.30;;;;;;4987147;28;20471;-84
2021/08/22 10:01:41;;;;;;;8.80;6.90;;;21.60;75.30;;;;;;4988822;28;20069;-86
2021/08/22 10:04:39;;;;;;;7.90;6.03;;;21.50;75.40;;;;;;4987447;28;20133;-85
2021/08/22 10:07:29;;;;;;;7.88;6.53;;;21.50;75.70;;;;;;4987241;28;20118;-84
2021/08/22 10:10:14;;;;;;;8.13;6.65;;;21.40;75.90;;;;;;4985144;28;20026;-83
2021/08/22 10:12:40;;;;;;;6.95;5.97;;;21.30;76.00;;;;;;4989918;28;20081;-85
2021/08/22 10:15:07;;;;;;;7.78;6.85;;;21.30;76.20;;;;;;4984129;28;20027;-84
2021/08/22 10:17:33;;;;;;;7.25;6.03;;;21.30;76.20;;;;;;4982264;28;20153;-82
2021/08/22 10:19:59;;;;;;;7.30;6.38;;;21.30;76.10;;;;;;4987367;28;20085;-81
2021/08/22 10:22:30;;;;;;;9.27;8.20;;;21.30;76.20;;;;;;4988626;28;20030;-83
2021/08/22 10:24:59;;;;;;;7.50;5.82;;;21.30;76.10;;;;;;4989085;28;20058;-84
2021/08/22 10:27:32;;;;;;;9.77;8.77;;;21.20;76.30;;;;;;4986866;28;20025;-82
2021/08/22 10:30:01;;;;;;;8.77;7.88;;;21.10;76.30;;;;;;4986222;28;20026;-82
2021/08/22 10:32:27;;;;;;;7.55;6.75;;;21.00;76.60;;;;;;4985134;28;20069;-83
2021/08/22 10:35:14;;;;;;;8.50;7.20;;;21.00;76.80;;;;;;4984736;28;20421;-84
2021/08/22 10:37:41;;;;;;;8.00;6.97;;;21.10;76.90;;;;;;4986989;28;20027;-84
2021/08/22 10:40:25;;;;;;;9.35;8.23;;;21.20;76.70;;;;;;4987236;28;20026;-82
2021/08/22 10:42:57;;;;;;;9.98;7.90;;;21.20;76.60;;;;;;4985994;28;20042;-82
2021/08/22 10:45:41;;;;;;;9.25;8.25;;;21.20;76.60;;;;;;4989277;28;20030;-81
2021/08/22 10:48:30;;;;;;;12.95;10.75;;;21.20;76.70;;;;;;4989190;28;20442;-81
2021/08/22 10:53:51;;;;;;;11.13;8.65;;;21.10;77.00;;;;;;4984006;28;20026;-84
2021/08/22 10:56:34;;;;;;;8.07;7.20;;;21.10;76.90;;;;;;4988792;28;20018;-82
2021/08/22 10:59:07;;;;;;;11.38;9.25;;;21.10;76.80;;;;;;4989268;28;20263;-82
2021/08/22 11:01:36;;;;;;;11.07;9.88;;;21.10;76.80;;;;;;4989113;28;20121;-82
2021/08/22 11:04:19;;;;;;;9.93;8.13;;;21.10;76.60;;;;;;4986135;28;20036;-82
2021/08/22 11:06:54;;;;;;;9.23;7.30;;;21.10;76.60;;;;;;4992105;28;20374;-82
2021/08/22 11:09:43;;;;;;;9.38;8.27;;;21.10;76.50;;;;;;4982747;28;20037;-82
2021/08/22 11:12:28;;;;;;;8.40;7.28;;;21.20;76.20;;;;;;4986463;28;20034;-83
2021/08/22 11:14:55;;;;;;;7.60;6.80;;;21.30;76.00;;;;;;4986810;28;20493;-83
2021/08/22 11:17:21;;;;;;;9.45;8.07;;;21.40;75.60;;;;;;4983047;28;20034;-82
2021/08/22 11:19:47;;;;;;;8.40;7.35;;;21.50;75.30;;;;;;4987885;28;20358;-83
2021/08/22 11:22:27;;;;;;;7.45;6.20;;;21.50;75.10;;;;;;4988418;28;20018;-82
2021/08/22 11:24:57;;;;;;;9.88;8.52;;;21.70;75.10;;;;;;4987511;28;20034;-84
2021/08/22 11:27:26;;;;;;;8.10;7.30;;;21.80;74.60;;;;;;4983593;28;20073;-82
2021/08/22 11:29:53;;;;;;;9.00;7.07;;;21.90;74.40;;;;;;4983563;28;20381;-83
2021/08/22 11:32:19;;;;;;;7.63;6.38;;;22.00;74.10;;;;;;4982901;28;20073;-83
2021/08/22 11:34:44;;;;;;;9.50;8.25;;;22.20;74.00;;;;;;4989673;28;20117;-83
2021/08/22 11:37:17;;;;;;;8.43;7.20;;;22.20;73.30;;;;;;4983151;28;20397;-83
2021/08/22 11:39:43;;;;;;;7.20;6.43;;;22.40;73.50;;;;;;4989420;28;20030;-81
2021/08/22 11:42:09;;;;;;;7.00;6.30;;;22.70;73.10;;;;;;4982661;28;20076;-82
2021/08/22 11:44:38;;;;;;;7.50;6.68;;;22.90;72.60;;;;;;4982983;28;20029;-82
2021/08/22 11:47:04;;;;;;;8.02;6.35;;;23.20;72.10;;;;;;4985326;28;20731;-83
2021/08/22 11:49:30;;;;;;;7.65;6.85;;;23.30;71.50;;;;;;4987252;28;20031;-82
2021/08/22 11:51:56;;;;;;;8.20;7.35;;;23.40;71.20;;;;;;4984530;28;20030;-86
2021/08/22 11:54:23;;;;;;;6.65;5.82;;;23.40;71.00;;;;;;4992941;28;20034;-84
2021/08/22 11:56:49;;;;;;;9.25;8.20;;;23.40;70.90;;;;;;4984252;28;20034;-82
2021/08/22 11:59:29;;;;;;;8.77;7.88;;;23.40;70.50;;;;;;4991182;28;20037;-87
2021/08/22 12:02:20;;;;;;;6.47;5.88;;;23.50;69.80;;;;;;4998991;28;20683;-85
2021/08/22 12:04:46;;;;;;;8.43;7.53;;;23.50;69.80;;;;;;4987098;28;20034;-85
2021/08/22 12:07:12;;;;;;;8.25;7.38;;;23.50;69.50;;;;;;4981409;28;20026;-88
2021/08/22 12:09:49;;;;;;;7.07;5.72;;;23.50;69.30;;;;;;4986704;28;20485;-89
2021/08/22 12:12:22;;;;;;;6.53;5.85;;;23.50;69.50;;;;;;5001749;28;20076;-88
2021/08/22 12:14:49;;;;;;;7.95;6.00;;;23.60;69.20;;;;;;4988850;28;20026;-88
2021/08/22 12:17:25;;;;;;;9.20;8.23;;;23.60;69.30;;;;;;4985406;28;20487;-89
2021/08/22 12:19:52;;;;;;;6.85;6.13;;;23.50;68.90;;;;;;4989624;28;20026;-92
2021/08/22 12:23:05;;;;;;;;;;;;;;;;;;;;;
2021/08/22 12:29:39;;;;;;;8.32;7.35;;;23.60;68.70;;;;;;4988750;28;20033;-88
2021/08/22 12:32:15;;;;;;;8.15;7.35;;;23.60;68.60;;;;;;4983264;28;20031;-78
2021/08/22 12:34:41;;;;;;;9.10;8.13;;;23.50;68.70;;;;;;4986971;28;20030;-78
2021/08/22 12:37:11;;;;;;;5.85;5.25;;;23.50;68.20;;;;;;4984981;28;20093;-78
2021/08/22 12:39:37;;;;;;;8.90;7.43;;;23.40;68.40;;;;;;4985766;28;20048;-78
2021/08/22 12:42:03;;;;;;;7.75;6.90;;;23.30;68.20;;;;;;4987008;28;20026;-78
2021/08/22 12:44:30;;;;;;;9.43;8.07;;;23.10;68.50;;;;;;4983646;28;20129;-79
2021/08/22 12:47:02;;;;;;;6.95;6.00;;;23.10;68.70;;;;;;4990434;28;20018;-79
2021/08/22 12:49:28;;;;;;;5.45;4.90;;;23.20;69.40;;;;;;4985766;28;20441;-82
2021/08/22 12:52:00;;;;;;;5.18;4.68;;;23.30;69.70;;;;;;4992005;28;20101;-81
2021/08/22 12:54:27;;;;;;;6.27;5.57;;;23.30;69.60;;;;;;4989541;28;20351;-81
2021/08/22 12:56:53;;;;;;;4.13;3.72;;;23.20;69.80;;;;;;4989380;28;20026;-81
2021/08/22 12:59:20;;;;;;;5.93;4.15;;;23.10;70.10;;;;;;4990583;28;20022;-82
2021/08/22 13:01:47;;;;;;;4.55;3.80;;;23.00;70.50;;;;;;4982422;28;20033;-81